JBU32 EHAM-KBOS
Flight info
| Callsign | JBU32 |
|---|---|
| Flight time | N/A |
| Altitude | 32000 |
| Route | BERGI L60 OTBED DCT ABLUC DCT OZRAT DCT WETFI DCT SUROX DCT REVNU/N0451F340 DCT ADBUS DCT VENER/M079F340 DCT 5530N02000W 5630N03000W 5630N04000W 55N050W DCT LOMSI/N0456F340 N668A TAFFY DCT AJJAY OOSHN5 |
| Aircraft | A321/M-SDE3FGHIRWY/LB1 |
Departure
| Time | 2026-04-29 15:31 |
|---|---|
| Airport | Amsterdam Airport Schiphol (EHAM) |
Arrival
| Time | N/A |
|---|---|
| Airport | Boston Logan International Airport (KBOS) |
| Time | Latitude | Longitude | Altitude | Speed | Heading |
|---|---|---|---|---|---|
| 2026-04-29 15:03 | 52.30794 | 4.77167 | -1 ft | 0 kts | 183° |
| 2026-04-29 15:13 | 52.30809 | 4.77168 | -1 ft | 4 kts | 193° |
| 2026-04-29 15:13 | 52.30830 | 4.77179 | -1 ft | 4 kts | 153° |
| 2026-04-29 15:13 | 52.30842 | 4.77157 | -1 ft | 4 kts | 103° |
| 2026-04-29 15:14 | 52.30844 | 4.77140 | -1 ft | 1 kts | 108° |
| 2026-04-29 15:18 | 52.30843 | 4.77147 | -1 ft | 2 kts | 105° |
| 2026-04-29 15:18 | 52.30841 | 4.77196 | -1 ft | 7 kts | 93° |
| 2026-04-29 15:18 | 52.30837 | 4.77302 | -1 ft | 12 kts | 92° |
| 2026-04-29 15:19 | 52.30835 | 4.77444 | -1 ft | 12 kts | 92° |
| 2026-04-29 15:19 | 52.30848 | 4.77576 | -1 ft | 12 kts | 51° |
| 2026-04-29 15:19 | 52.30942 | 4.77614 | -1 ft | 16 kts | 3° |
| 2026-04-29 15:19 | 52.31070 | 4.77626 | -1 ft | 20 kts | 4° |
| 2026-04-29 15:20 | 52.31209 | 4.77639 | -1 ft | 20 kts | 4° |
| 2026-04-29 15:20 | 52.31344 | 4.77653 | -1 ft | 19 kts | 1° |
| 2026-04-29 15:20 | 52.31473 | 4.77614 | -1 ft | 19 kts | 327° |
| 2026-04-29 15:20 | 52.31562 | 4.77443 | -1 ft | 22 kts | 293° |
| 2026-04-29 15:21 | 52.31571 | 4.77177 | -1 ft | 25 kts | 268° |
| 2026-04-29 15:21 | 52.31561 | 4.76889 | -1 ft | 25 kts | 266° |
| 2026-04-29 15:21 | 52.31551 | 4.76605 | -1 ft | 25 kts | 267° |
| 2026-04-29 15:21 | 52.31542 | 4.76329 | -1 ft | 24 kts | 266° |
| 2026-04-29 15:22 | 52.31532 | 4.76053 | -1 ft | 24 kts | 267° |
| 2026-04-29 15:22 | 52.31523 | 4.75778 | -1 ft | 24 kts | 267° |
| 2026-04-29 15:22 | 52.31515 | 4.75506 | -1 ft | 24 kts | 267° |
| 2026-04-29 15:22 | 52.31506 | 4.75236 | -1 ft | 24 kts | 266° |
| 2026-04-29 15:23 | 52.31496 | 4.74968 | -1 ft | 23 kts | 266° |
| 2026-04-29 15:23 | 52.31487 | 4.74703 | -1 ft | 23 kts | 266° |
| 2026-04-29 15:23 | 52.31478 | 4.74460 | -1 ft | 19 kts | 267° |
| 2026-04-29 15:23 | 52.31493 | 4.74308 | -1 ft | 12 kts | 322° |
| 2026-04-29 15:24 | 52.31584 | 4.74300 | -1 ft | 15 kts | 1° |
| 2026-04-29 15:24 | 52.31705 | 4.74309 | -1 ft | 18 kts | 4° |
| 2026-04-29 15:24 | 52.31832 | 4.74324 | -1 ft | 18 kts | 4° |
| 2026-04-29 15:24 | 52.31955 | 4.74336 | -1 ft | 14 kts | 3° |
| 2026-04-29 15:25 | 52.32024 | 4.74280 | -1 ft | 12 kts | 294° |
| 2026-04-29 15:25 | 52.32035 | 4.74113 | -2 ft | 18 kts | 274° |
| 2026-04-29 15:25 | 52.32043 | 4.73881 | -1 ft | 22 kts | 273° |
| 2026-04-29 15:25 | 52.32052 | 4.73626 | -1 ft | 23 kts | 273° |
| 2026-04-29 15:26 | 52.32081 | 4.73378 | -1 ft | 22 kts | 304° |
| 2026-04-29 15:26 | 52.32198 | 4.73203 | -1 ft | 25 kts | 319° |
| 2026-04-29 15:26 | 52.32337 | 4.73007 | -1 ft | 27 kts | 319° |
| 2026-04-29 15:26 | 52.32476 | 4.72815 | -1 ft | 26 kts | 319° |
| 2026-04-29 15:27 | 52.32613 | 4.72619 | -1 ft | 26 kts | 319° |
| 2026-04-29 15:27 | 52.32738 | 4.72411 | -1 ft | 26 kts | 311° |
| 2026-04-29 15:27 | 52.32856 | 4.72193 | -1 ft | 25 kts | 311° |
| 2026-04-29 15:27 | 52.32973 | 4.71978 | -1 ft | 25 kts | 311° |
| 2026-04-29 15:28 | 52.33087 | 4.71766 | -1 ft | 23 kts | 311° |
| 2026-04-29 15:28 | 52.33143 | 4.71638 | -1 ft | 19 kts | 287° |
| 2026-04-29 15:28 | 52.33066 | 4.71404 | -1 ft | 19 kts | 223° |
| 2026-04-29 15:28 | 52.32968 | 4.71262 | -1 ft | 19 kts | 221° |
| 2026-04-29 15:29 | 52.32882 | 4.71134 | -1 ft | 15 kts | 233° |
| 2026-04-29 15:29 | 52.32871 | 4.70910 | -2 ft | 6 kts | 299° |
| 2026-04-29 15:30 | 52.32913 | 4.70899 | -3 ft | 0 kts | 1° |
| 2026-04-29 15:30 | 52.32914 | 4.70899 | -3 ft | 1 kts | 1° |
| 2026-04-29 15:30 | 52.33018 | 4.70905 | -4 ft | 45 kts | 3° |
| 2026-04-29 15:30 | 52.33565 | 4.70957 | 0 ft | 109 kts | 3° |
| 2026-04-29 15:31 | 52.34508 | 4.71040 | -1 ft | 160 kts | 2° |
| 2026-04-29 15:31 | 52.35726 | 4.71159 | 198 ft | 183 kts | 9° |
| 2026-04-29 15:31 | 52.36999 | 4.71297 | 865 ft | 184 kts | 9° |
| 2026-04-29 15:31 | 52.38279 | 4.71412 | 1383 ft | 190 kts | 9° |
| 2026-04-29 15:32 | 52.39668 | 4.71543 | 1526 ft | 210 kts | 10° |
| 2026-04-29 15:32 | 52.41202 | 4.71695 | 1662 ft | 235 kts | 8° |
| 2026-04-29 15:32 | 52.42899 | 4.71328 | 2098 ft | 256 kts | 344° |
| 2026-04-29 15:32 | 52.44437 | 4.69731 | 2702 ft | 270 kts | 321° |
| 2026-04-29 15:33 | 52.45781 | 4.67540 | 3325 ft | 276 kts | 319° |
| 2026-04-29 15:33 | 52.47159 | 4.65279 | 3897 ft | 283 kts | 319° |
| 2026-04-29 15:33 | 52.48548 | 4.63000 | 4546 ft | 287 kts | 319° |
| 2026-04-29 15:33 | 52.49964 | 4.60673 | 5225 ft | 289 kts | 319° |
| 2026-04-29 15:34 | 52.51401 | 4.58347 | 5910 ft | 288 kts | 323° |
| 2026-04-29 15:34 | 52.53031 | 4.56477 | 6586 ft | 284 kts | 335° |
| 2026-04-29 15:34 | 52.54757 | 4.54873 | 7238 ft | 285 kts | 335° |
| 2026-04-29 15:34 | 52.56493 | 4.53253 | 7860 ft | 287 kts | 334° |
| 2026-04-29 15:35 | 52.58238 | 4.51619 | 8485 ft | 289 kts | 334° |
| 2026-04-29 15:35 | 52.59969 | 4.49995 | 9108 ft | 291 kts | 334° |
| 2026-04-29 15:35 | 52.61733 | 4.48333 | 9728 ft | 293 kts | 334° |
| 2026-04-29 15:35 | 52.63507 | 4.46660 | 10342 ft | 295 kts | 334° |
| 2026-04-29 15:36 | 52.65292 | 4.44969 | 10898 ft | 296 kts | 334° |
| 2026-04-29 15:36 | 52.67102 | 4.43255 | 11270 ft | 308 kts | 334° |
| 2026-04-29 15:36 | 52.69016 | 4.41453 | 11388 ft | 326 kts | 334° |
| 2026-04-29 15:36 | 52.71039 | 4.39552 | 11519 ft | 343 kts | 334° |
| 2026-04-29 15:37 | 52.73052 | 4.37238 | 11642 ft | 364 kts | 321° |
| 2026-04-29 15:37 | 52.74782 | 4.34044 | 11773 ft | 384 kts | 307° |
| 2026-04-29 15:37 | 52.76058 | 4.30062 | 11953 ft | 401 kts | 292° |
| 2026-04-29 15:37 | 52.76940 | 4.25710 | 12373 ft | 407 kts | 290° |
| 2026-04-29 15:38 | 52.77834 | 4.21252 | 12885 ft | 410 kts | 290° |
| 2026-04-29 15:38 | 52.78739 | 4.16773 | 13422 ft | 413 kts | 291° |
| 2026-04-29 15:38 | 52.79651 | 4.12253 | 13963 ft | 416 kts | 291° |
| 2026-04-29 15:38 | 52.80568 | 4.07695 | 14447 ft | 419 kts | 291° |
| 2026-04-29 15:39 | 52.81492 | 4.03081 | 14896 ft | 422 kts | 290° |
| 2026-04-29 15:39 | 52.82419 | 3.98446 | 15285 ft | 428 kts | 290° |
| 2026-04-29 15:39 | 52.83356 | 3.93754 | 15741 ft | 431 kts | 290° |
| 2026-04-29 15:39 | 52.84284 | 3.89080 | 16198 ft | 434 kts | 290° |
| 2026-04-29 15:40 | 52.85229 | 3.84310 | 16647 ft | 438 kts | 290° |
| 2026-04-29 15:40 | 52.86181 | 3.79503 | 17084 ft | 441 kts | 290° |
| 2026-04-29 15:40 | 52.87137 | 3.74655 | 17506 ft | 444 kts | 290° |
| 2026-04-29 15:40 | 52.88099 | 3.69762 | 17918 ft | 448 kts | 290° |
| 2026-04-29 15:41 | 52.89066 | 3.64838 | 18314 ft | 451 kts | 290° |
| 2026-04-29 15:41 | 52.90027 | 3.59937 | 18702 ft | 454 kts | 290° |
| 2026-04-29 15:41 | 52.91004 | 3.54929 | 19054 ft | 457 kts | 290° |
| 2026-04-29 15:41 | 52.91980 | 3.49908 | 19406 ft | 459 kts | 289° |
| 2026-04-29 15:42 | 52.92960 | 3.44852 | 19766 ft | 461 kts | 289° |
| 2026-04-29 15:42 | 52.93943 | 3.39773 | 20106 ft | 463 kts | 289° |
| 2026-04-29 15:42 | 52.94925 | 3.34681 | 20458 ft | 465 kts | 289° |
| 2026-04-29 15:42 | 52.95913 | 3.29552 | 20806 ft | 467 kts | 289° |
| 2026-04-29 15:43 | 52.96887 | 3.24481 | 21145 ft | 469 kts | 289° |
| 2026-04-29 15:43 | 52.97879 | 3.19307 | 21492 ft | 471 kts | 289° |
| 2026-04-29 15:43 | 52.98876 | 3.14109 | 21825 ft | 473 kts | 289° |
| 2026-04-29 15:43 | 52.99876 | 3.08887 | 22168 ft | 475 kts | 289° |
| 2026-04-29 15:44 | 53.00875 | 3.03643 | 22504 ft | 477 kts | 288° |
| 2026-04-29 15:44 | 53.01872 | 2.98375 | 22846 ft | 479 kts | 288° |
| 2026-04-29 15:44 | 53.02867 | 2.93080 | 23166 ft | 481 kts | 288° |
| 2026-04-29 15:44 | 53.03863 | 2.87766 | 23476 ft | 483 kts | 288° |
| 2026-04-29 15:45 | 53.04861 | 2.82433 | 23773 ft | 485 kts | 288° |
| 2026-04-29 15:45 | 53.05865 | 2.77067 | 24068 ft | 486 kts | 288° |
| 2026-04-29 15:45 | 53.06857 | 2.71753 | 24320 ft | 488 kts | 288° |
| 2026-04-29 15:45 | 53.07862 | 2.66352 | 24576 ft | 490 kts | 288° |
| 2026-04-29 15:46 | 53.08868 | 2.60923 | 24839 ft | 491 kts | 288° |
| 2026-04-29 15:46 | 53.09872 | 2.55474 | 25106 ft | 493 kts | 288° |
| 2026-04-29 15:46 | 53.10810 | 2.49973 | 25350 ft | 495 kts | 282° |
| 2026-04-29 15:46 | 53.11368 | 2.44299 | 25630 ft | 496 kts | 277° |
| 2026-04-29 15:47 | 53.11830 | 2.38612 | 26009 ft | 495 kts | 277° |
| 2026-04-29 15:47 | 53.12287 | 2.33004 | 26389 ft | 493 kts | 277° |
| 2026-04-29 15:47 | 53.12751 | 2.27339 | 26768 ft | 492 kts | 277° |
| 2026-04-29 15:47 | 53.13211 | 2.21680 | 27143 ft | 491 kts | 277° |
| 2026-04-29 15:48 | 53.13665 | 2.16035 | 27522 ft | 490 kts | 277° |
| 2026-04-29 15:48 | 53.14116 | 2.10409 | 27896 ft | 489 kts | 277° |
| 2026-04-29 15:48 | 53.14563 | 2.04782 | 28266 ft | 489 kts | 277° |
| 2026-04-29 15:48 | 53.15006 | 1.99167 | 28631 ft | 488 kts | 277° |
| 2026-04-29 15:49 | 53.15442 | 1.93640 | 28989 ft | 487 kts | 276° |
| 2026-04-29 15:49 | 53.15884 | 1.88034 | 29358 ft | 486 kts | 276° |
| 2026-04-29 15:49 | 53.16323 | 1.82438 | 29730 ft | 485 kts | 276° |
| 2026-04-29 15:49 | 53.16754 | 1.76875 | 30092 ft | 484 kts | 276° |
| 2026-04-29 15:50 | 53.17181 | 1.71299 | 30456 ft | 483 kts | 276° |
| 2026-04-29 15:50 | 53.17605 | 1.65740 | 30765 ft | 482 kts | 276° |
| 2026-04-29 15:50 | 53.18026 | 1.60204 | 31055 ft | 482 kts | 276° |
| 2026-04-29 15:50 | 53.18438 | 1.54733 | 31333 ft | 481 kts | 276° |
| 2026-04-29 15:51 | 53.18851 | 1.49190 | 31606 ft | 481 kts | 276° |
| 2026-04-29 15:51 | 53.19262 | 1.43641 | 31862 ft | 481 kts | 276° |
| 2026-04-29 15:51 | 53.19668 | 1.38099 | 32131 ft | 481 kts | 276° |
| 2026-04-29 15:51 | 53.20070 | 1.32561 | 32353 ft | 481 kts | 276° |
| 2026-04-29 15:52 | 53.20474 | 1.26995 | 32413 ft | 483 kts | 276° |
| 2026-04-29 15:52 | 53.21281 | 1.15895 | 32412 ft | 484 kts | 275° |
| 2026-04-29 15:53 | 53.22074 | 1.04727 | 32405 ft | 485 kts | 275° |
| 2026-04-29 15:53 | 53.22860 | 0.93553 | 32411 ft | 484 kts | 275° |
| 2026-04-29 15:54 | 53.23629 | 0.82384 | 32407 ft | 484 kts | 275° |
| 2026-04-29 15:54 | 53.24388 | 0.71200 | 32413 ft | 484 kts | 275° |
| 2026-04-29 15:55 | 53.25141 | 0.60022 | 32413 ft | 484 kts | 275° |
| 2026-04-29 15:55 | 53.25883 | 0.48905 | 32418 ft | 484 kts | 274° |
| 2026-04-29 15:56 | 53.26621 | 0.37684 | 32417 ft | 485 kts | 274° |
| 2026-04-29 15:56 | 53.27339 | 0.26536 | 32419 ft | 485 kts | 274° |
| 2026-04-29 15:57 | 53.28049 | 0.15294 | 32422 ft | 486 kts | 274° |
| 2026-04-29 15:57 | 53.28761 | 0.04056 | 32424 ft | 486 kts | 276° |
| 2026-04-29 15:58 | 53.30152 | -0.06993 | 32427 ft | 488 kts | 280° |
| 2026-04-29 15:58 | 53.31620 | -0.18089 | 32424 ft | 489 kts | 280° |
| 2026-04-29 15:59 | 53.33067 | -0.29206 | 32419 ft | 489 kts | 280° |
| 2026-04-29 15:59 | 53.34501 | -0.40328 | 32424 ft | 489 kts | 280° |
| 2026-04-29 16:00 | 53.35929 | -0.51469 | 32423 ft | 489 kts | 280° |
| 2026-04-29 16:00 | 53.37354 | -0.62629 | 32426 ft | 489 kts | 279° |
| 2026-04-29 16:01 | 53.38761 | -0.73706 | 32428 ft | 489 kts | 279° |
| 2026-04-29 16:01 | 53.40172 | -0.84876 | 32424 ft | 489 kts | 279° |
| 2026-04-29 16:02 | 53.41559 | -0.96056 | 32417 ft | 489 kts | 279° |
| 2026-04-29 16:02 | 53.42922 | -1.07162 | 32421 ft | 489 kts | 279° |
| 2026-04-29 16:03 | 53.44288 | -1.18341 | 32413 ft | 489 kts | 279° |
| 2026-04-29 16:03 | 53.45646 | -1.29533 | 32409 ft | 489 kts | 279° |
| 2026-04-29 16:04 | 53.46996 | -1.40737 | 32406 ft | 490 kts | 279° |
| 2026-04-29 16:04 | 53.48337 | -1.51956 | 32397 ft | 490 kts | 278° |
| 2026-04-29 16:05 | 53.49668 | -1.63204 | 32399 ft | 491 kts | 278° |
| 2026-04-29 16:05 | 53.50979 | -1.74420 | 32371 ft | 492 kts | 278° |
| 2026-04-29 16:06 | 53.52299 | -1.85731 | 32380 ft | 493 kts | 278° |
| 2026-04-29 16:06 | 53.53604 | -1.97057 | 32364 ft | 493 kts | 278° |
| 2026-04-29 16:07 | 53.54889 | -2.08305 | 32389 ft | 493 kts | 278° |
| 2026-04-29 16:07 | 53.56177 | -2.19681 | 32353 ft | 495 kts | 278° |
| 2026-04-29 16:08 | 53.57458 | -2.31086 | 32335 ft | 496 kts | 278° |
| 2026-04-29 16:08 | 53.58728 | -2.42522 | 32335 ft | 497 kts | 278° |
| 2026-04-29 16:09 | 53.59990 | -2.53960 | 32338 ft | 498 kts | 278° |
| 2026-04-29 16:09 | 53.61240 | -2.65382 | 32350 ft | 498 kts | 278° |
| 2026-04-29 16:10 | 53.62483 | -2.76902 | 32328 ft | 499 kts | 278° |
| 2026-04-29 16:10 | 53.63724 | -2.88452 | 32343 ft | 500 kts | 277° |
| 2026-04-29 16:11 | 53.64949 | -3.00008 | 32346 ft | 500 kts | 277° |
| 2026-04-29 16:11 | 53.66158 | -3.11507 | 32348 ft | 500 kts | 277° |
| 2026-04-29 16:12 | 53.67367 | -3.23093 | 32338 ft | 503 kts | 277° |
| 2026-04-29 16:12 | 53.68569 | -3.34750 | 32333 ft | 504 kts | 277° |
| 2026-04-29 16:13 | 53.69754 | -3.46449 | 32302 ft | 505 kts | 277° |
| 2026-04-29 16:13 | 53.70925 | -3.58071 | 32315 ft | 505 kts | 277° |
| 2026-04-29 16:14 | 53.72103 | -3.69777 | 32331 ft | 506 kts | 277° |
| 2026-04-29 16:14 | 53.73278 | -3.81549 | 32298 ft | 509 kts | 277° |
| 2026-04-29 16:15 | 53.74235 | -3.91365 | 32301 ft | 510 kts | 277° |
| 2026-04-29 16:15 | 53.75561 | -4.05133 | 32299 ft | 511 kts | 277° |
| 2026-04-29 16:16 | 53.76509 | -4.15001 | 32305 ft | 511 kts | 277° |
| 2026-04-29 16:16 | 53.77638 | -4.26890 | 32321 ft | 512 kts | 277° |
| 2026-04-29 16:17 | 53.78940 | -4.40725 | 32322 ft | 512 kts | 277° |
| 2026-04-29 16:17 | 53.79852 | -4.50726 | 32320 ft | 512 kts | 274° |
| 2026-04-29 16:18 | 53.80308 | -4.62639 | 32323 ft | 510 kts | 270° |
| 2026-04-29 16:18 | 53.80707 | -4.74646 | 32321 ft | 511 kts | 271° |
| 2026-04-29 16:19 | 53.81101 | -4.86660 | 32302 ft | 512 kts | 271° |
| 2026-04-29 16:19 | 53.81497 | -4.98645 | 32301 ft | 512 kts | 271° |
| 2026-04-29 16:20 | 53.81875 | -5.10715 | 32302 ft | 513 kts | 270° |
| 2026-04-29 16:20 | 53.82225 | -5.22792 | 32305 ft | 513 kts | 270° |
| 2026-04-29 16:21 | 53.82564 | -5.34869 | 32310 ft | 513 kts | 271° |
| 2026-04-29 16:21 | 53.82897 | -5.46957 | 32321 ft | 514 kts | 272° |
| 2026-04-29 16:22 | 53.84028 | -5.58839 | 32326 ft | 515 kts | 281° |
| 2026-04-29 16:22 | 53.85431 | -5.70735 | 32327 ft | 515 kts | 280° |
| 2026-04-29 16:23 | 53.86809 | -5.82639 | 32327 ft | 514 kts | 280° |
| 2026-04-29 16:23 | 53.88164 | -5.94522 | 32342 ft | 512 kts | 280° |
| 2026-04-29 16:24 | 53.89505 | -6.06308 | 32349 ft | 512 kts | 280° |
| 2026-04-29 16:24 | 53.90852 | -6.18173 | 32347 ft | 511 kts | 280° |
| 2026-04-29 16:25 | 53.92183 | -6.30022 | 32349 ft | 511 kts | 280° |
| 2026-04-29 16:25 | 53.93499 | -6.41889 | 32334 ft | 512 kts | 280° |
| 2026-04-29 16:26 | 53.94791 | -6.53727 | 32318 ft | 513 kts | 279° |
| 2026-04-29 16:26 | 53.96085 | -6.65677 | 32318 ft | 513 kts | 279° |
| 2026-04-29 16:27 | 53.97371 | -6.77615 | 32324 ft | 514 kts | 279° |
| 2026-04-29 16:27 | 53.98641 | -6.89497 | 32341 ft | 515 kts | 279° |
| 2026-04-29 16:28 | 54.00023 | -7.01456 | 32326 ft | 515 kts | 285° |
| 2026-04-29 16:28 | 54.01952 | -7.13209 | 32323 ft | 516 kts | 285° |
| 2026-04-29 16:29 | 54.03881 | -7.24993 | 32307 ft | 516 kts | 285° |
| 2026-04-29 16:29 | 54.05784 | -7.36683 | 32334 ft | 514 kts | 285° |
| 2026-04-29 16:30 | 54.07676 | -7.48443 | 32344 ft | 514 kts | 285° |
| 2026-04-29 16:30 | 54.09550 | -7.60184 | 32331 ft | 513 kts | 285° |
| 2026-04-29 16:31 | 54.11415 | -7.71930 | 32319 ft | 513 kts | 285° |
| 2026-04-29 16:31 | 54.13274 | -7.83690 | 32319 ft | 513 kts | 285° |
| 2026-04-29 16:32 | 54.15104 | -7.95369 | 32310 ft | 513 kts | 285° |
| 2026-04-29 16:32 | 54.16938 | -8.07136 | 32313 ft | 513 kts | 285° |
| 2026-04-29 16:33 | 54.19659 | -8.24780 | 32310 ft | 513 kts | 285° |
| 2026-04-29 16:33 | 54.21461 | -8.36596 | 32282 ft | 512 kts | 285° |
| 2026-04-29 16:34 | 54.23236 | -8.48305 | 32324 ft | 510 kts | 284° |
| 2026-04-29 16:34 | 54.25003 | -8.60045 | 32330 ft | 509 kts | 285° |
| 2026-04-29 16:35 | 54.26756 | -8.71776 | 32327 ft | 508 kts | 285° |
| 2026-04-29 16:35 | 54.28498 | -8.83474 | 32321 ft | 506 kts | 284° |
| 2026-04-29 16:36 | 54.30211 | -8.95106 | 32311 ft | 506 kts | 284° |
| 2026-04-29 16:36 | 54.31913 | -9.06794 | 32304 ft | 506 kts | 284° |
| 2026-04-29 16:37 | 54.33604 | -9.18499 | 32301 ft | 506 kts | 284° |
| 2026-04-29 16:37 | 54.35006 | -9.28247 | 32296 ft | 506 kts | 284° |
| 2026-04-29 16:38 | 54.36955 | -9.41868 | 32287 ft | 506 kts | 284° |
| 2026-04-29 16:38 | 54.38626 | -9.53604 | 32280 ft | 505 kts | 284° |
| 2026-04-29 16:39 | 54.40277 | -9.65323 | 32287 ft | 504 kts | 284° |
| 2026-04-29 16:39 | 54.41903 | -9.76970 | 32300 ft | 503 kts | 284° |
| 2026-04-29 16:40 | 54.43521 | -9.88646 | 32296 ft | 502 kts | 283° |
| 2026-04-29 16:40 | 54.45126 | -10.00326 | 32303 ft | 502 kts | 283° |
| 2026-04-29 16:41 | 54.46500 | -10.12113 | 32298 ft | 501 kts | 274° |
| 2026-04-29 16:41 | 54.46520 | -10.23997 | 32302 ft | 500 kts | 268° |
| 2026-04-29 16:42 | 54.46365 | -10.35979 | 32299 ft | 500 kts | 268° |
| 2026-04-29 16:42 | 54.46217 | -10.47929 | 32298 ft | 500 kts | 268° |
| 2026-04-29 16:43 | 54.46051 | -10.59797 | 32293 ft | 499 kts | 268° |
| 2026-04-29 16:43 | 54.45859 | -10.71743 | 32293 ft | 499 kts | 267° |
| 2026-04-29 16:44 | 54.45657 | -10.83693 | 32308 ft | 500 kts | 268° |
| 2026-04-29 16:44 | 54.45450 | -10.95651 | 32294 ft | 500 kts | 268° |
| 2026-04-29 16:45 | 54.45227 | -11.07540 | 32295 ft | 500 kts | 268° |
| 2026-04-29 16:45 | 54.44990 | -11.19506 | 32300 ft | 500 kts | 267° |
| 2026-04-29 16:46 | 54.44743 | -11.31482 | 32303 ft | 501 kts | 267° |
| 2026-04-29 16:46 | 54.44490 | -11.43378 | 32298 ft | 501 kts | 267° |
| 2026-04-29 16:47 | 54.44223 | -11.55354 | 32292 ft | 501 kts | 267° |
| 2026-04-29 16:47 | 54.43945 | -11.67333 | 32292 ft | 500 kts | 267° |
| 2026-04-29 16:48 | 54.43653 | -11.79218 | 32283 ft | 500 kts | 266° |
| 2026-04-29 16:48 | 54.43344 | -11.91146 | 32307 ft | 498 kts | 266° |
| 2026-04-29 16:49 | 54.43022 | -12.03015 | 32310 ft | 497 kts | 266° |
| 2026-04-29 16:49 | 54.42696 | -12.14858 | 32307 ft | 495 kts | 266° |
| 2026-04-29 16:50 | 54.42365 | -12.26674 | 32303 ft | 494 kts | 266° |
| 2026-04-29 16:50 | 54.42023 | -12.38388 | 32301 ft | 494 kts | 266° |
| 2026-04-29 16:51 | 54.41721 | -12.50156 | 32301 ft | 493 kts | 271° |
| 2026-04-29 16:51 | 54.42191 | -12.61935 | 32300 ft | 493 kts | 274° |
| 2026-04-29 16:52 | 54.42692 | -12.73688 | 32298 ft | 493 kts | 274° |
| 2026-04-29 16:52 | 54.43169 | -12.85361 | 32298 ft | 493 kts | 274° |
| 2026-04-29 16:53 | 54.43643 | -12.97143 | 32306 ft | 493 kts | 274° |
| 2026-04-29 16:53 | 54.44099 | -13.08819 | 32306 ft | 493 kts | 274° |
| 2026-04-29 16:54 | 54.44541 | -13.20584 | 32297 ft | 492 kts | 274° |
| 2026-04-29 16:54 | 54.44982 | -13.32341 | 32294 ft | 492 kts | 274° |
| 2026-04-29 16:55 | 54.45417 | -13.44006 | 32297 ft | 492 kts | 274° |
| 2026-04-29 16:55 | 54.45838 | -13.55756 | 32301 ft | 491 kts | 273° |
| 2026-04-29 16:56 | 54.46238 | -13.67485 | 32297 ft | 491 kts | 273° |
| 2026-04-29 16:56 | 54.46619 | -13.79124 | 32296 ft | 490 kts | 273° |
| 2026-04-29 16:57 | 54.47005 | -13.90834 | 32289 ft | 489 kts | 272° |
| 2026-04-29 16:57 | 54.47371 | -14.02518 | 32302 ft | 488 kts | 272° |
| 2026-04-29 16:58 | 54.47726 | -14.14084 | 32306 ft | 486 kts | 272° |
| 2026-04-29 16:58 | 54.48076 | -14.25684 | 32303 ft | 484 kts | 272° |
| 2026-04-29 16:59 | 54.48406 | -14.37263 | 32297 ft | 483 kts | 272° |
| 2026-04-29 16:59 | 54.48719 | -14.48797 | 32292 ft | 482 kts | 272° |
| 2026-04-29 17:00 | 54.49021 | -14.60250 | 32287 ft | 482 kts | 272° |
| 2026-04-29 17:00 | 54.49320 | -14.71772 | 32297 ft | 481 kts | 272° |
| 2026-04-29 17:01 | 54.49609 | -14.83273 | 32295 ft | 480 kts | 272° |
| 2026-04-29 17:01 | 54.49894 | -14.94665 | 32290 ft | 479 kts | 274° |
| 2026-04-29 17:02 | 54.51321 | -15.05829 | 32283 ft | 478 kts | 291° |
| 2026-04-29 17:02 | 54.53324 | -15.14704 | 32277 ft | 478 kts | 291° |
| 2026-04-29 17:03 | 54.55718 | -15.25398 | 32281 ft | 477 kts | 291° |
| 2026-04-29 17:03 | 54.58095 | -15.36093 | 32286 ft | 476 kts | 290° |
| 2026-04-29 17:04 | 54.60443 | -15.46701 | 32292 ft | 475 kts | 290° |
| 2026-04-29 17:04 | 54.62794 | -15.57351 | 32292 ft | 474 kts | 290° |
| 2026-04-29 17:05 | 54.65120 | -15.67949 | 32288 ft | 474 kts | 290° |
| 2026-04-29 17:05 | 54.67440 | -15.78616 | 32282 ft | 474 kts | 290° |
| 2026-04-29 17:06 | 54.69744 | -15.89277 | 32292 ft | 473 kts | 289° |
| 2026-04-29 17:06 | 54.72050 | -15.99946 | 32293 ft | 473 kts | 290° |
| 2026-04-29 17:07 | 54.74343 | -16.10596 | 32293 ft | 471 kts | 289° |
| 2026-04-29 17:07 | 54.76600 | -16.21165 | 32293 ft | 470 kts | 289° |
| 2026-04-29 17:08 | 54.78851 | -16.31777 | 32289 ft | 469 kts | 289° |
| 2026-04-29 17:08 | 54.81098 | -16.42397 | 32287 ft | 468 kts | 289° |
| 2026-04-29 17:09 | 54.83332 | -16.53011 | 32289 ft | 468 kts | 288° |
| 2026-04-29 17:09 | 54.85538 | -16.63575 | 32286 ft | 467 kts | 288° |
| 2026-04-29 17:10 | 54.87745 | -16.74191 | 32287 ft | 467 kts | 288° |
| 2026-04-29 17:10 | 54.89946 | -16.84812 | 32285 ft | 467 kts | 288° |
| 2026-04-29 17:11 | 54.92143 | -16.95452 | 32281 ft | 467 kts | 288° |
| 2026-04-29 17:11 | 54.94310 | -17.06024 | 32275 ft | 467 kts | 288° |
| 2026-04-29 17:12 | 54.96483 | -17.16695 | 32275 ft | 467 kts | 288° |
| 2026-04-29 17:12 | 54.98280 | -17.25576 | 32275 ft | 467 kts | 288° |
| 2026-04-29 17:13 | 55.00783 | -17.37974 | 32274 ft | 466 kts | 288° |
| 2026-04-29 17:13 | 55.02922 | -17.48657 | 32270 ft | 466 kts | 288° |
| 2026-04-29 17:14 | 55.05055 | -17.59340 | 32278 ft | 466 kts | 287° |
| 2026-04-29 17:14 | 55.07174 | -17.70024 | 32280 ft | 465 kts | 287° |
| 2026-04-29 17:15 | 55.09283 | -17.80710 | 32282 ft | 465 kts | 286° |
| 2026-04-29 17:15 | 55.11362 | -17.91351 | 32278 ft | 465 kts | 286° |
| 2026-04-29 17:16 | 55.13450 | -18.02058 | 32274 ft | 465 kts | 286° |
| 2026-04-29 17:16 | 55.15533 | -18.12761 | 32269 ft | 464 kts | 286° |
| 2026-04-29 17:17 | 55.17589 | -18.23414 | 32267 ft | 464 kts | 286° |
| 2026-04-29 17:17 | 55.19644 | -18.34136 | 32276 ft | 464 kts | 285° |
| 2026-04-29 17:18 | 55.21693 | -18.44860 | 32270 ft | 464 kts | 285° |
| 2026-04-29 17:18 | 55.23717 | -18.55535 | 32287 ft | 463 kts | 285° |
| 2026-04-29 17:19 | 55.25737 | -18.66258 | 32274 ft | 463 kts | 285° |
| 2026-04-29 17:19 | 55.27747 | -18.76975 | 32275 ft | 462 kts | 285° |
| 2026-04-29 17:20 | 55.29746 | -18.87698 | 32260 ft | 462 kts | 285° |
| 2026-04-29 17:20 | 55.31728 | -18.98435 | 32262 ft | 462 kts | 285° |
| 2026-04-29 17:21 | 55.33715 | -19.09171 | 32263 ft | 462 kts | 285° |
| 2026-04-29 17:21 | 55.35674 | -19.19833 | 32272 ft | 461 kts | 285° |
| 2026-04-29 17:22 | 55.37625 | -19.30562 | 32260 ft | 460 kts | 284° |
| 2026-04-29 17:22 | 55.39563 | -19.41300 | 32259 ft | 459 kts | 284° |
| 2026-04-29 17:23 | 55.41485 | -19.51952 | 32253 ft | 459 kts | 284° |
| 2026-04-29 17:23 | 55.43410 | -19.62682 | 32253 ft | 459 kts | 284° |
| 2026-04-29 17:24 | 55.45327 | -19.73435 | 32248 ft | 459 kts | 284° |
| 2026-04-29 17:24 | 55.47225 | -19.84177 | 32261 ft | 459 kts | 284° |
| 2026-04-29 17:25 | 55.49096 | -19.94852 | 32652 ft | 456 kts | 283° |
| 2026-04-29 17:25 | 55.50013 | -20.00196 | 33005 ft | 453 kts | 282° |
| 2026-04-29 17:25 | 55.50865 | -20.05528 | 33303 ft | 451 kts | 281° |
| 2026-04-29 17:26 | 55.51661 | -20.10892 | 33575 ft | 450 kts | 280° |
| 2026-04-29 17:26 | 55.52414 | -20.16258 | 33839 ft | 449 kts | 280° |
| 2026-04-29 17:26 | 55.53144 | -20.21611 | 34108 ft | 449 kts | 279° |
| 2026-04-29 17:26 | 55.53873 | -20.26974 | 34214 ft | 449 kts | 279° |
| 2026-04-29 17:27 | 55.55339 | -20.37629 | 34223 ft | 449 kts | 280° |
| 2026-04-29 17:27 | 55.56845 | -20.48343 | 34217 ft | 448 kts | 280° |
| 2026-04-29 17:28 | 55.58341 | -20.59015 | 34213 ft | 446 kts | 279° |
| 2026-04-29 17:28 | 55.59815 | -20.69695 | 34215 ft | 446 kts | 279° |
| 2026-04-29 17:29 | 55.61271 | -20.80299 | 34234 ft | 446 kts | 278° |
| 2026-04-29 17:29 | 55.62489 | -20.89249 | 34234 ft | 445 kts | 278° |
| 2026-04-29 17:30 | 55.64160 | -21.01658 | 34231 ft | 445 kts | 278° |
| 2026-04-29 17:30 | 55.65591 | -21.12309 | 34226 ft | 444 kts | 278° |
| 2026-04-29 17:31 | 55.67007 | -21.22910 | 34235 ft | 444 kts | 278° |
| 2026-04-29 17:31 | 55.68428 | -21.33593 | 34225 ft | 444 kts | 278° |
| 2026-04-29 17:32 | 55.69824 | -21.44275 | 34220 ft | 443 kts | 277° |
| 2026-04-29 17:32 | 55.71199 | -21.54872 | 34212 ft | 443 kts | 277° |
| 2026-04-29 17:33 | 55.72580 | -21.65539 | 34204 ft | 443 kts | 277° |
| 2026-04-29 17:33 | 55.73948 | -21.76193 | 34222 ft | 442 kts | 277° |
| 2026-04-29 17:34 | 55.75305 | -21.86785 | 34218 ft | 442 kts | 277° |
| 2026-04-29 17:34 | 55.76661 | -21.97397 | 34191 ft | 440 kts | 276° |
| 2026-04-29 17:35 | 55.78659 | -22.13376 | 34188 ft | 441 kts | 276° |
| 2026-04-29 17:36 | 55.79971 | -22.23983 | 34186 ft | 441 kts | 276° |
| 2026-04-29 17:36 | 55.81290 | -22.34667 | 34189 ft | 442 kts | 276° |
| 2026-04-29 17:37 | 55.82592 | -22.45294 | 34193 ft | 441 kts | 276° |
| 2026-04-29 17:37 | 55.83887 | -22.55971 | 34203 ft | 441 kts | 276° |
| 2026-04-29 17:38 | 55.85168 | -22.66627 | 34167 ft | 438 kts | 275° |
| 2026-04-29 17:38 | 55.86436 | -22.77264 | 34166 ft | 438 kts | 275° |
| 2026-04-29 17:39 | 55.87690 | -22.87847 | 34168 ft | 439 kts | 275° |
| 2026-04-29 17:39 | 55.88947 | -22.98521 | 34170 ft | 439 kts | 275° |
| 2026-04-29 17:40 | 55.90183 | -23.09106 | 34173 ft | 439 kts | 275° |
| 2026-04-29 17:40 | 55.91413 | -23.19780 | 34175 ft | 439 kts | 274° |
| 2026-04-29 17:41 | 55.92635 | -23.30473 | 34207 ft | 439 kts | 274° |
| 2026-04-29 17:41 | 55.93843 | -23.41087 | 34198 ft | 439 kts | 274° |
| 2026-04-29 17:42 | 55.95054 | -23.51738 | 34178 ft | 436 kts | 273° |
| 2026-04-29 17:42 | 55.96249 | -23.62301 | 34172 ft | 434 kts | 273° |
| 2026-04-29 17:43 | 55.97422 | -23.72891 | 34177 ft | 434 kts | 273° |
| 2026-04-29 17:43 | 55.98579 | -23.83425 | 34180 ft | 434 kts | 272° |
| 2026-04-29 17:44 | 55.99740 | -23.94037 | 34178 ft | 434 kts | 272° |
| 2026-04-29 17:44 | 56.00876 | -24.04571 | 34189 ft | 434 kts | 272° |
| 2026-04-29 17:45 | 56.02007 | -24.15178 | 34190 ft | 434 kts | 272° |
| 2026-04-29 17:45 | 56.03136 | -24.25788 | 34191 ft | 434 kts | 272° |
| 2026-04-29 17:46 | 56.04252 | -24.36344 | 34192 ft | 434 kts | 272° |
| 2026-04-29 17:46 | 56.05358 | -24.46926 | 34195 ft | 430 kts | 271° |
| 2026-04-29 17:47 | 56.06452 | -24.57470 | 34199 ft | 430 kts | 271° |
| 2026-04-29 17:47 | 56.07526 | -24.67953 | 34225 ft | 430 kts | 271° |
| 2026-04-29 17:48 | 56.08607 | -24.78495 | 34222 ft | 429 kts | 271° |
| 2026-04-29 17:48 | 56.09670 | -24.88938 | 34217 ft | 429 kts | 271° |
| 2026-04-29 17:49 | 56.10719 | -24.99469 | 34214 ft | 428 kts | 270° |
| 2026-04-29 17:49 | 56.11756 | -25.09969 | 34211 ft | 428 kts | 270° |
| 2026-04-29 17:50 | 56.12613 | -25.18717 | 34209 ft | 428 kts | 270° |
| 2026-04-29 17:50 | 56.13644 | -25.29244 | 34237 ft | 428 kts | 270° |
| 2026-04-29 17:51 | 56.14659 | -25.39688 | 34226 ft | 427 kts | 270° |
| 2026-04-29 17:51 | 56.15663 | -25.50201 | 34224 ft | 426 kts | 270° |
| 2026-04-29 17:52 | 56.16642 | -25.60625 | 34216 ft | 426 kts | 270° |
| 2026-04-29 17:52 | 56.17630 | -25.71111 | 34220 ft | 426 kts | 270° |
| 2026-04-29 17:53 | 56.18612 | -25.81603 | 34221 ft | 425 kts | 269° |
| 2026-04-29 17:53 | 56.19577 | -25.92092 | 34219 ft | 425 kts | 269° |
| 2026-04-29 17:54 | 56.20526 | -26.02505 | 34224 ft | 425 kts | 269° |
| 2026-04-29 17:54 | 56.21471 | -26.12996 | 34211 ft | 424 kts | 269° |
| 2026-04-29 17:55 | 56.22405 | -26.23472 | 34261 ft | 424 kts | 268° |
| 2026-04-29 17:55 | 56.23333 | -26.33848 | 34210 ft | 422 kts | 268° |
| 2026-04-29 17:56 | 56.24254 | -26.44285 | 34208 ft | 422 kts | 268° |
| 2026-04-29 17:56 | 56.25162 | -26.54726 | 34206 ft | 422 kts | 267° |
| 2026-04-29 17:57 | 56.26056 | -26.65159 | 34213 ft | 422 kts | 267° |
| 2026-04-29 17:57 | 56.26938 | -26.75529 | 34251 ft | 422 kts | 267° |
| 2026-04-29 17:58 | 56.27819 | -26.85986 | 34236 ft | 422 kts | 267° |
| 2026-04-29 17:58 | 56.28693 | -26.96451 | 34228 ft | 422 kts | 266° |
| 2026-04-29 17:59 | 56.29540 | -27.06840 | 34231 ft | 422 kts | 266° |
| 2026-04-29 17:59 | 56.30393 | -27.17312 | 34286 ft | 422 kts | 266° |
| 2026-04-29 18:00 | 56.31239 | -27.27748 | 34212 ft | 419 kts | 266° |
| 2026-04-29 18:00 | 56.32070 | -27.38147 | 34209 ft | 419 kts | 265° |
| 2026-04-29 18:01 | 56.32886 | -27.48556 | 34244 ft | 420 kts | 266° |
| 2026-04-29 18:01 | 56.33697 | -27.58940 | 34234 ft | 420 kts | 266° |
| 2026-04-29 18:02 | 56.34508 | -27.69379 | 34233 ft | 420 kts | 266° |
| 2026-04-29 18:02 | 56.35307 | -27.79819 | 34230 ft | 421 kts | 265° |
| 2026-04-29 18:03 | 56.36093 | -27.90275 | 34230 ft | 420 kts | 265° |
| 2026-04-29 18:03 | 56.36869 | -28.00751 | 34230 ft | 421 kts | 265° |
| 2026-04-29 18:04 | 56.37636 | -28.11141 | 34304 ft | 420 kts | 266° |
| 2026-04-29 18:04 | 56.38401 | -28.21582 | 34213 ft | 418 kts | 267° |
| 2026-04-29 18:05 | 56.39156 | -28.32023 | 34208 ft | 419 kts | 267° |
| 2026-04-29 18:05 | 56.39899 | -28.42490 | 34219 ft | 420 kts | 266° |
| 2026-04-29 18:06 | 56.40634 | -28.52960 | 34221 ft | 420 kts | 266° |
| 2026-04-29 18:06 | 56.41354 | -28.63386 | 34225 ft | 421 kts | 266° |
| 2026-04-29 18:07 | 56.42070 | -28.73895 | 34230 ft | 421 kts | 266° |
| 2026-04-29 18:07 | 56.42781 | -28.84403 | 34255 ft | 421 kts | 268° |
| 2026-04-29 18:08 | 56.43484 | -28.94935 | 34231 ft | 423 kts | 268° |
| 2026-04-29 18:08 | 56.44180 | -29.05442 | 34262 ft | 424 kts | 269° |
| 2026-04-29 18:09 | 56.44873 | -29.16081 | 34240 ft | 426 kts | 269° |
| 2026-04-29 18:09 | 56.45557 | -29.26761 | 34231 ft | 427 kts | 269° |
| 2026-04-29 18:10 | 56.46226 | -29.37383 | 34229 ft | 427 kts | 269° |
| 2026-04-29 18:10 | 56.46893 | -29.48054 | 34228 ft | 427 kts | 269° |
| 2026-04-29 18:11 | 56.47555 | -29.58760 | 34236 ft | 428 kts | 270° |
| 2026-04-29 18:11 | 56.48207 | -29.69476 | 34230 ft | 428 kts | 269° |
| 2026-04-29 18:12 | 56.48837 | -29.80139 | 34231 ft | 429 kts | 269° |
| 2026-04-29 18:12 | 56.49464 | -29.90879 | 34243 ft | 429 kts | 269° |
| 2026-04-29 18:13 | 56.50071 | -30.01627 | 34246 ft | 429 kts | 269° |
| 2026-04-29 18:13 | 56.50547 | -30.12323 | 34232 ft | 428 kts | 268° |
| 2026-04-29 18:14 | 56.50930 | -30.23089 | 34235 ft | 428 kts | 268° |
| 2026-04-29 18:14 | 56.51307 | -30.33882 | 34238 ft | 429 kts | 269° |
| 2026-04-29 18:15 | 56.51709 | -30.44683 | 34234 ft | 430 kts | 269° |
| 2026-04-29 18:15 | 56.52113 | -30.55490 | 34235 ft | 430 kts | 269° |
| 2026-04-29 18:16 | 56.52491 | -30.66238 | 34240 ft | 430 kts | 269° |
| 2026-04-29 18:16 | 56.52854 | -30.77055 | 34239 ft | 430 kts | 269° |
| 2026-04-29 18:17 | 56.53221 | -30.87873 | 34235 ft | 429 kts | 269° |
| 2026-04-29 18:17 | 56.53585 | -30.98684 | 34272 ft | 430 kts | 269° |
| 2026-04-29 18:18 | 56.53925 | -31.09433 | 34227 ft | 429 kts | 269° |
| 2026-04-29 18:18 | 56.54251 | -31.20250 | 34225 ft | 430 kts | 269° |
| 2026-04-29 18:19 | 56.54577 | -31.31078 | 34233 ft | 430 kts | 269° |
| 2026-04-29 18:19 | 56.54899 | -31.41922 | 34235 ft | 430 kts | 269° |
| 2026-04-29 18:20 | 56.55201 | -31.52711 | 34236 ft | 431 kts | 269° |
| 2026-04-29 18:20 | 56.55499 | -31.63563 | 34234 ft | 430 kts | 269° |
| 2026-04-29 18:21 | 56.55797 | -31.74404 | 34228 ft | 430 kts | 270° |
| 2026-04-29 18:21 | 56.56075 | -31.85187 | 34232 ft | 430 kts | 270° |
| 2026-04-29 18:22 | 56.56337 | -31.96049 | 34239 ft | 430 kts | 270° |
| 2026-04-29 18:22 | 56.56593 | -32.06885 | 34236 ft | 429 kts | 270° |
| 2026-04-29 18:23 | 56.56850 | -32.17650 | 34230 ft | 429 kts | 270° |
| 2026-04-29 18:23 | 56.57095 | -32.28479 | 34228 ft | 429 kts | 270° |
| 2026-04-29 18:24 | 56.57324 | -32.39317 | 34219 ft | 429 kts | 271° |
| 2026-04-29 18:24 | 56.57541 | -32.50152 | 34219 ft | 429 kts | 271° |
| 2026-04-29 18:25 | 56.57747 | -32.60922 | 34231 ft | 429 kts | 271° |
| 2026-04-29 18:25 | 56.57950 | -32.71756 | 34232 ft | 429 kts | 271° |
| 2026-04-29 18:26 | 56.58152 | -32.82568 | 34224 ft | 429 kts | 271° |
| 2026-04-29 18:26 | 56.58334 | -32.93339 | 34225 ft | 429 kts | 271° |
| 2026-04-29 18:27 | 56.58503 | -33.04154 | 34251 ft | 429 kts | 271° |
| 2026-04-29 18:27 | 56.58664 | -33.14988 | 34234 ft | 428 kts | 272° |
| 2026-04-29 18:28 | 56.58827 | -33.25779 | 34226 ft | 427 kts | 272° |
| 2026-04-29 18:28 | 56.58979 | -33.36505 | 34233 ft | 427 kts | 272° |
| 2026-04-29 18:29 | 56.59119 | -33.47291 | 34236 ft | 427 kts | 272° |
| 2026-04-29 18:29 | 56.59239 | -33.58069 | 34233 ft | 427 kts | 272° |
| 2026-04-29 18:30 | 56.59353 | -33.68783 | 34227 ft | 427 kts | 272° |
| 2026-04-29 18:30 | 56.59474 | -33.79556 | 34195 ft | 427 kts | 273° |
| 2026-04-29 18:31 | 56.59573 | -33.90317 | 34216 ft | 426 kts | 273° |
| 2026-04-29 18:31 | 56.59663 | -34.01096 | 34237 ft | 426 kts | 273° |
| 2026-04-29 18:32 | 56.59741 | -34.11819 | 34236 ft | 426 kts | 273° |
| 2026-04-29 18:32 | 56.59837 | -34.27953 | 34234 ft | 426 kts | 273° |
| 2026-04-29 18:33 | 56.59895 | -34.38719 | 34234 ft | 426 kts | 273° |
| 2026-04-29 18:33 | 56.59944 | -34.49414 | 34204 ft | 426 kts | 274° |
| 2026-04-29 18:34 | 56.59970 | -34.56602 | 34224 ft | 425 kts | 274° |
| 2026-04-29 18:34 | 56.60012 | -34.70851 | 34234 ft | 425 kts | 274° |
| 2026-04-29 18:35 | 56.60030 | -34.81566 | 34239 ft | 424 kts | 274° |
| 2026-04-29 18:35 | 56.60045 | -34.92280 | 34234 ft | 424 kts | 274° |
| 2026-04-29 18:36 | 56.60054 | -35.02988 | 34232 ft | 423 kts | 274° |
| 2026-04-29 18:36 | 56.60037 | -35.13616 | 34234 ft | 423 kts | 274° |
| 2026-04-29 18:37 | 56.60018 | -35.24310 | 34214 ft | 422 kts | 274° |
| 2026-04-29 18:37 | 56.59995 | -35.33174 | 34232 ft | 422 kts | 274° |
| 2026-04-29 18:38 | 56.59964 | -35.45551 | 34237 ft | 420 kts | 274° |
| 2026-04-29 18:38 | 56.59929 | -35.54382 | 34239 ft | 420 kts | 274° |
| 2026-04-29 18:39 | 56.59881 | -35.64987 | 34241 ft | 419 kts | 274° |
| 2026-04-29 18:39 | 56.59819 | -35.75598 | 34243 ft | 419 kts | 274° |
| 2026-04-29 18:40 | 56.59754 | -35.86114 | 34239 ft | 419 kts | 274° |
| 2026-04-29 18:40 | 56.59678 | -35.96701 | 34234 ft | 418 kts | 275° |
| 2026-04-29 18:41 | 56.59493 | -36.17716 | 34252 ft | 414 kts | 275° |
| 2026-04-29 18:42 | 56.59392 | -36.28068 | 34253 ft | 412 kts | 275° |
| 2026-04-29 18:42 | 56.59279 | -36.38494 | 34251 ft | 412 kts | 275° |
| 2026-04-29 18:43 | 56.59160 | -36.48885 | 34246 ft | 411 kts | 275° |
| 2026-04-29 18:43 | 56.59026 | -36.59208 | 34247 ft | 411 kts | 275° |
| 2026-04-29 18:44 | 56.58887 | -36.69572 | 34236 ft | 410 kts | 276° |
| 2026-04-29 18:44 | 56.58740 | -36.79855 | 34249 ft | 409 kts | 275° |
| 2026-04-29 18:45 | 56.58588 | -36.90177 | 34248 ft | 408 kts | 275° |
| 2026-04-29 18:45 | 56.58434 | -37.00471 | 34254 ft | 408 kts | 275° |
| 2026-04-29 18:46 | 56.58264 | -37.10764 | 34255 ft | 407 kts | 275° |
| 2026-04-29 18:46 | 56.58083 | -37.20987 | 34262 ft | 406 kts | 276° |
| 2026-04-29 18:47 | 56.57897 | -37.31242 | 34252 ft | 406 kts | 275° |
| 2026-04-29 18:47 | 56.57699 | -37.41422 | 34231 ft | 406 kts | 276° |
| 2026-04-29 18:48 | 56.57499 | -37.51655 | 34238 ft | 405 kts | 276° |
| 2026-04-29 18:48 | 56.57297 | -37.61900 | 34244 ft | 406 kts | 276° |
| 2026-04-29 18:49 | 56.57079 | -37.72063 | 34239 ft | 406 kts | 275° |
| 2026-04-29 18:49 | 56.56849 | -37.82302 | 34243 ft | 406 kts | 275° |
| 2026-04-29 18:50 | 56.56612 | -37.92537 | 34251 ft | 406 kts | 275° |
| 2026-04-29 18:50 | 56.56376 | -38.02709 | 34252 ft | 406 kts | 275° |
| 2026-04-29 18:51 | 56.56122 | -38.12975 | 34252 ft | 406 kts | 275° |
| 2026-04-29 18:51 | 56.55860 | -38.23136 | 34253 ft | 405 kts | 275° |
| 2026-04-29 18:52 | 56.55585 | -38.33349 | 34256 ft | 405 kts | 275° |
| 2026-04-29 18:52 | 56.55311 | -38.43554 | 34252 ft | 405 kts | 275° |
| 2026-04-29 18:53 | 56.55025 | -38.53762 | 34259 ft | 405 kts | 275° |
| 2026-04-29 18:53 | 56.54731 | -38.63919 | 34254 ft | 405 kts | 275° |
| 2026-04-29 18:54 | 56.54427 | -38.74124 | 34213 ft | 405 kts | 275° |
| 2026-04-29 18:54 | 56.54121 | -38.84262 | 34234 ft | 405 kts | 275° |
| 2026-04-29 18:55 | 56.53797 | -38.94492 | 34239 ft | 405 kts | 275° |
| 2026-04-29 18:55 | 56.53464 | -39.04692 | 34251 ft | 405 kts | 275° |
| 2026-04-29 18:56 | 56.53128 | -39.14891 | 34252 ft | 405 kts | 274° |
| 2026-04-29 18:56 | 56.52789 | -39.25013 | 34255 ft | 405 kts | 274° |
| 2026-04-29 18:57 | 56.52438 | -39.35221 | 34261 ft | 405 kts | 274° |
| 2026-04-29 18:57 | 56.52074 | -39.45401 | 34215 ft | 405 kts | 274° |
| 2026-04-29 18:58 | 56.51708 | -39.55597 | 34225 ft | 406 kts | 274° |
| 2026-04-29 18:58 | 56.51333 | -39.65758 | 34233 ft | 406 kts | 274° |
| 2026-04-29 18:59 | 56.50948 | -39.75995 | 34241 ft | 407 kts | 274° |
| 2026-04-29 18:59 | 56.50557 | -39.86164 | 34252 ft | 407 kts | 274° |
| 2026-04-29 19:00 | 56.50143 | -39.96414 | 34254 ft | 407 kts | 274° |
| 2026-04-29 19:00 | 56.49298 | -40.06666 | 34258 ft | 414 kts | 268° |
| 2026-04-29 19:01 | 56.48208 | -40.16907 | 34223 ft | 414 kts | 267° |
| 2026-04-29 19:01 | 56.47120 | -40.27142 | 34235 ft | 415 kts | 267° |
| 2026-04-29 19:02 | 56.46208 | -40.35663 | 34255 ft | 415 kts | 267° |
| 2026-04-29 19:02 | 56.44907 | -40.47585 | 34251 ft | 415 kts | 267° |
| 2026-04-29 19:03 | 56.43786 | -40.57858 | 34257 ft | 415 kts | 267° |
| 2026-04-29 19:03 | 56.42664 | -40.68098 | 34260 ft | 415 kts | 267° |
| 2026-04-29 19:04 | 56.41532 | -40.78288 | 34224 ft | 416 kts | 266° |
| 2026-04-29 19:04 | 56.40386 | -40.88522 | 34236 ft | 416 kts | 266° |
| 2026-04-29 19:05 | 56.39232 | -40.98765 | 34247 ft | 416 kts | 266° |
| 2026-04-29 19:05 | 56.38062 | -41.09002 | 34250 ft | 416 kts | 266° |
| 2026-04-29 19:06 | 56.36886 | -41.19235 | 34257 ft | 416 kts | 266° |
| 2026-04-29 19:07 | 56.35108 | -41.34562 | 34276 ft | 416 kts | 266° |
| 2026-04-29 19:07 | 56.33920 | -41.44694 | 34235 ft | 415 kts | 266° |
| 2026-04-29 19:08 | 56.32723 | -41.54898 | 34235 ft | 415 kts | 266° |
| 2026-04-29 19:08 | 56.31518 | -41.65081 | 34244 ft | 416 kts | 266° |
| 2026-04-29 19:09 | 56.30300 | -41.75272 | 34248 ft | 416 kts | 266° |
| 2026-04-29 19:09 | 56.29072 | -41.85465 | 34253 ft | 416 kts | 265° |
| 2026-04-29 19:10 | 56.27841 | -41.95584 | 34263 ft | 416 kts | 265° |
| 2026-04-29 19:10 | 56.26801 | -42.04055 | 34228 ft | 417 kts | 265° |
| 2026-04-29 19:11 | 56.25333 | -42.16003 | 34248 ft | 418 kts | 265° |
| 2026-04-29 19:11 | 56.24082 | -42.26139 | 34247 ft | 418 kts | 265° |
| 2026-04-29 19:12 | 56.22802 | -42.36372 | 34259 ft | 419 kts | 265° |
| 2026-04-29 19:12 | 56.21523 | -42.46538 | 34261 ft | 419 kts | 265° |
| 2026-04-29 19:13 | 56.20226 | -42.56777 | 34268 ft | 419 kts | 264° |
| 2026-04-29 19:13 | 56.18921 | -42.66983 | 34241 ft | 418 kts | 264° |
| 2026-04-29 19:14 | 56.17616 | -42.77104 | 34246 ft | 419 kts | 264° |
| 2026-04-29 19:14 | 56.16294 | -42.87305 | 34258 ft | 419 kts | 264° |
| 2026-04-29 19:15 | 56.14972 | -42.97428 | 34264 ft | 419 kts | 264° |
| 2026-04-29 19:15 | 56.13631 | -43.07601 | 34261 ft | 419 kts | 264° |
| 2026-04-29 19:16 | 56.12286 | -43.17784 | 34262 ft | 419 kts | 264° |
| 2026-04-29 19:16 | 56.10936 | -43.27952 | 34228 ft | 419 kts | 263° |
| 2026-04-29 19:17 | 56.09573 | -43.38111 | 34234 ft | 420 kts | 263° |
| 2026-04-29 19:17 | 56.08195 | -43.48284 | 34240 ft | 420 kts | 263° |
| 2026-04-29 19:18 | 56.06820 | -43.58389 | 34244 ft | 420 kts | 263° |
| 2026-04-29 19:18 | 56.05431 | -43.68568 | 34249 ft | 421 kts | 263° |
| 2026-04-29 19:19 | 56.04035 | -43.78754 | 34261 ft | 421 kts | 263° |
| 2026-04-29 19:19 | 56.02617 | -43.88915 | 34230 ft | 421 kts | 262° |
| 2026-04-29 19:20 | 56.01200 | -43.99022 | 34243 ft | 421 kts | 262° |
| 2026-04-29 19:20 | 55.99772 | -44.09195 | 34250 ft | 422 kts | 262° |
| 2026-04-29 19:21 | 55.98342 | -44.19321 | 34251 ft | 422 kts | 262° |
| 2026-04-29 19:21 | 55.96894 | -44.29485 | 34256 ft | 422 kts | 262° |
| 2026-04-29 19:22 | 55.95436 | -44.39655 | 34261 ft | 422 kts | 262° |
| 2026-04-29 19:22 | 55.93986 | -44.49737 | 34251 ft | 422 kts | 262° |
| 2026-04-29 19:23 | 55.92509 | -44.59890 | 34248 ft | 422 kts | 262° |
| 2026-04-29 19:23 | 55.91026 | -44.70029 | 34252 ft | 422 kts | 262° |
| 2026-04-29 19:24 | 55.89536 | -44.80159 | 34337 ft | 423 kts | 262° |
| 2026-04-29 19:24 | 55.88790 | -44.85209 | 34630 ft | 422 kts | 261° |
| 2026-04-29 19:24 | 55.88043 | -44.90256 | 34907 ft | 420 kts | 261° |
| 2026-04-29 19:24 | 55.87304 | -44.95236 | 35204 ft | 419 kts | 261° |
| 2026-04-29 19:25 | 55.86558 | -45.00243 | 35469 ft | 418 kts | 261° |
| 2026-04-29 19:25 | 55.85808 | -45.05259 | 35728 ft | 418 kts | 261° |
| 2026-04-29 19:25 | 55.85060 | -45.10253 | 35925 ft | 418 kts | 261° |
| 2026-04-29 19:25 | 55.84560 | -45.13584 | 36074 ft | 418 kts | 260° |
| 2026-04-29 19:26 | 55.83804 | -45.18591 | 36212 ft | 419 kts | 260° |
| 2026-04-29 19:26 | 55.82033 | -45.30218 | 36236 ft | 419 kts | 260° |
| 2026-04-29 19:27 | 55.80754 | -45.38587 | 36228 ft | 418 kts | 260° |
| 2026-04-29 19:27 | 55.79233 | -45.48510 | 36228 ft | 418 kts | 260° |
| 2026-04-29 19:28 | 55.77695 | -45.58508 | 36229 ft | 419 kts | 260° |
| 2026-04-29 19:28 | 55.76147 | -45.68490 | 36205 ft | 419 kts | 259° |
| 2026-04-29 19:29 | 55.74587 | -45.78484 | 36213 ft | 420 kts | 259° |
| 2026-04-29 19:29 | 55.73022 | -45.88414 | 36218 ft | 420 kts | 259° |
| 2026-04-29 19:30 | 55.71441 | -45.98410 | 36225 ft | 421 kts | 259° |
| 2026-04-29 19:30 | 55.69853 | -46.08407 | 36235 ft | 421 kts | 259° |
| 2026-04-29 19:31 | 55.68255 | -46.18426 | 36238 ft | 422 kts | 259° |
| 2026-04-29 19:31 | 55.66645 | -46.28431 | 36211 ft | 422 kts | 259° |
| 2026-04-29 19:32 | 55.65033 | -46.38393 | 36209 ft | 423 kts | 259° |
| 2026-04-29 19:32 | 55.63399 | -46.48426 | 36227 ft | 424 kts | 258° |
| 2026-04-29 19:33 | 55.61753 | -46.58480 | 36237 ft | 425 kts | 258° |
| 2026-04-29 19:33 | 55.60103 | -46.68512 | 36239 ft | 425 kts | 258° |
| 2026-04-29 19:34 | 55.58438 | -46.78539 | 36240 ft | 425 kts | 258° |
| 2026-04-29 19:34 | 55.56776 | -46.88519 | 36214 ft | 425 kts | 258° |
| 2026-04-29 19:35 | 55.55101 | -46.98525 | 36224 ft | 426 kts | 258° |
| 2026-04-29 19:35 | 55.53410 | -47.08589 | 36229 ft | 427 kts | 258° |
| 2026-04-29 19:36 | 55.51707 | -47.18643 | 36242 ft | 427 kts | 257° |
| 2026-04-29 19:36 | 55.49996 | -47.28601 | 36239 ft | 426 kts | 257° |
| 2026-04-29 19:37 | 55.48278 | -47.38597 | 36240 ft | 426 kts | 257° |
| 2026-04-29 19:37 | 55.46557 | -47.48591 | 36215 ft | 425 kts | 257° |
| 2026-04-29 19:38 | 55.44830 | -47.58561 | 36226 ft | 426 kts | 257° |
| 2026-04-29 19:38 | 55.43097 | -47.68538 | 36222 ft | 426 kts | 257° |
| 2026-04-29 19:39 | 55.41345 | -47.78519 | 36226 ft | 426 kts | 257° |
| 2026-04-29 19:39 | 55.39584 | -47.88486 | 36233 ft | 426 kts | 257° |
| 2026-04-29 19:40 | 55.37830 | -47.98392 | 36231 ft | 426 kts | 257° |
| 2026-04-29 19:40 | 55.36056 | -48.08362 | 36211 ft | 427 kts | 256° |
| 2026-04-29 19:41 | 55.34272 | -48.18316 | 36208 ft | 427 kts | 256° |
| 2026-04-29 19:41 | 55.32477 | -48.28284 | 36214 ft | 427 kts | 256° |
| 2026-04-29 19:42 | 55.30690 | -48.38187 | 36232 ft | 427 kts | 256° |
| 2026-04-29 19:42 | 55.28884 | -48.48104 | 36231 ft | 426 kts | 256° |
| 2026-04-29 19:43 | 55.27064 | -48.57990 | 36217 ft | 425 kts | 256° |
| 2026-04-29 19:43 | 55.25247 | -48.67844 | 36202 ft | 424 kts | 255° |
| 2026-04-29 19:44 | 55.23440 | -48.77637 | 36203 ft | 424 kts | 255° |
| 2026-04-29 19:44 | 55.21609 | -48.87493 | 36209 ft | 425 kts | 255° |
| 2026-04-29 19:45 | 55.19770 | -48.97327 | 36212 ft | 425 kts | 255° |
| 2026-04-29 19:45 | 55.17936 | -49.07103 | 36204 ft | 425 kts | 255° |
| 2026-04-29 19:46 | 55.16080 | -49.16929 | 36204 ft | 425 kts | 255° |
| 2026-04-29 19:46 | 55.14213 | -49.26732 | 36179 ft | 425 kts | 254° |
| 2026-04-29 19:47 | 55.12342 | -49.36502 | 36187 ft | 426 kts | 254° |
| 2026-04-29 19:47 | 55.10459 | -49.46335 | 36199 ft | 426 kts | 254° |
| 2026-04-29 19:48 | 55.08570 | -49.56144 | 36205 ft | 425 kts | 254° |
| 2026-04-29 19:48 | 55.06688 | -49.65864 | 36204 ft | 425 kts | 253° |
| 2026-04-29 19:49 | 55.04789 | -49.75627 | 36186 ft | 424 kts | 253° |
| 2026-04-29 19:49 | 55.02882 | -49.85365 | 36179 ft | 424 kts | 253° |
| 2026-04-29 19:50 | 55.00962 | -49.95116 | 36171 ft | 425 kts | 253° |
| 2026-04-29 19:50 | 54.98939 | -50.04794 | 36183 ft | 426 kts | 250° |
| 2026-04-29 19:51 | 54.96656 | -50.14265 | 36188 ft | 426 kts | 249° |
| 2026-04-29 19:51 | 54.94282 | -50.23722 | 36185 ft | 426 kts | 249° |
| 2026-04-29 19:52 | 54.91935 | -50.33199 | 36183 ft | 426 kts | 249° |
| 2026-04-29 19:52 | 54.89637 | -50.42647 | 36179 ft | 426 kts | 249° |
| 2026-04-29 19:53 | 54.87322 | -50.52146 | 36174 ft | 426 kts | 249° |
| 2026-04-29 19:53 | 54.84984 | -50.61629 | 36185 ft | 426 kts | 249° |
| 2026-04-29 19:54 | 54.81478 | -50.75737 | 36188 ft | 425 kts | 249° |
| 2026-04-29 19:54 | 54.79124 | -50.85166 | 36178 ft | 425 kts | 248° |
| 2026-04-29 19:55 | 54.76766 | -50.94576 | 36166 ft | 425 kts | 248° |
| 2026-04-29 19:55 | 54.74421 | -51.03913 | 36170 ft | 425 kts | 248° |
| 2026-04-29 19:56 | 54.72049 | -51.13301 | 36174 ft | 425 kts | 248° |
| 2026-04-29 19:56 | 54.69665 | -51.22688 | 36179 ft | 426 kts | 248° |
| 2026-04-29 19:57 | 54.67691 | -51.30477 | 36178 ft | 426 kts | 248° |
| 2026-04-29 19:57 | 54.64914 | -51.41341 | 36166 ft | 426 kts | 247° |
| 2026-04-29 19:58 | 54.62507 | -51.50719 | 36170 ft | 426 kts | 247° |
| 2026-04-29 19:58 | 54.60093 | -51.60092 | 36172 ft | 427 kts | 247° |
| 2026-04-29 19:59 | 54.57677 | -51.69446 | 36170 ft | 427 kts | 247° |
| 2026-04-29 19:59 | 54.55259 | -51.78726 | 36173 ft | 427 kts | 247° |
| 2026-04-29 20:00 | 54.52817 | -51.88048 | 36174 ft | 426 kts | 246° |
| 2026-04-29 20:00 | 54.50378 | -51.97361 | 36176 ft | 426 kts | 246° |
| 2026-04-29 20:01 | 54.47939 | -52.06631 | 36175 ft | 425 kts | 246° |
| 2026-04-29 20:01 | 54.45510 | -52.15825 | 36172 ft | 425 kts | 246° |
| 2026-04-29 20:02 | 54.43048 | -52.25062 | 36178 ft | 425 kts | 245° |
| 2026-04-29 20:02 | 54.41398 | -52.31238 | 36176 ft | 425 kts | 246° |
| 2026-04-29 20:03 | 54.38118 | -52.43532 | 36159 ft | 425 kts | 245° |
| 2026-04-29 20:03 | 54.35659 | -52.52703 | 36159 ft | 425 kts | 245° |
| 2026-04-29 20:04 | 54.33177 | -52.61890 | 36162 ft | 425 kts | 245° |
| 2026-04-29 20:04 | 54.30687 | -52.71071 | 36164 ft | 424 kts | 245° |
| 2026-04-29 20:05 | 54.28220 | -52.80182 | 36163 ft | 424 kts | 245° |
| 2026-04-29 20:05 | 54.25723 | -52.89338 | 36149 ft | 424 kts | 244° |
| 2026-04-29 20:06 | 54.23216 | -52.98469 | 36152 ft | 424 kts | 244° |
| 2026-04-29 20:06 | 54.20701 | -53.07593 | 36177 ft | 424 kts | 244° |
| 2026-04-29 20:07 | 54.18187 | -53.16686 | 36167 ft | 423 kts | 244° |
| 2026-04-29 20:07 | 54.15672 | -53.25768 | 36163 ft | 422 kts | 244° |
| 2026-04-29 20:08 | 54.14007 | -53.31754 | 36156 ft | 421 kts | 244° |
| 2026-04-29 20:08 | 54.10651 | -53.43762 | 36151 ft | 421 kts | 244° |
| 2026-04-29 20:09 | 54.08123 | -53.52771 | 36143 ft | 421 kts | 244° |
| 2026-04-29 20:09 | 54.05581 | -53.61783 | 36145 ft | 421 kts | 244° |
| 2026-04-29 20:10 | 54.03058 | -53.70717 | 36144 ft | 421 kts | 243° |
| 2026-04-29 20:10 | 54.00509 | -53.79699 | 36141 ft | 421 kts | 243° |
| 2026-04-29 20:11 | 53.98384 | -53.87159 | 36132 ft | 421 kts | 243° |
| 2026-04-29 20:11 | 53.95400 | -53.97585 | 36129 ft | 422 kts | 243° |
| 2026-04-29 20:12 | 53.93246 | -54.05096 | 36135 ft | 422 kts | 243° |
| 2026-04-29 20:12 | 53.90684 | -54.14001 | 36135 ft | 422 kts | 243° |
| 2026-04-29 20:13 | 53.88098 | -54.22958 | 36148 ft | 422 kts | 242° |
| 2026-04-29 20:13 | 53.85505 | -54.31904 | 36140 ft | 421 kts | 242° |
| 2026-04-29 20:14 | 53.82920 | -54.40753 | 36133 ft | 421 kts | 242° |
| 2026-04-29 20:14 | 53.80304 | -54.49675 | 36125 ft | 421 kts | 242° |
| 2026-04-29 20:15 | 53.77696 | -54.58568 | 36128 ft | 422 kts | 242° |
| 2026-04-29 20:15 | 53.75094 | -54.67383 | 36114 ft | 422 kts | 242° |
| 2026-04-29 20:16 | 53.72471 | -54.76249 | 36115 ft | 422 kts | 242° |
| 2026-04-29 20:16 | 53.69844 | -54.85130 | 36119 ft | 422 kts | 241° |
| 2026-04-29 20:17 | 53.67208 | -54.93988 | 36121 ft | 422 kts | 241° |
| 2026-04-29 20:17 | 53.64582 | -55.02762 | 36112 ft | 422 kts | 241° |
| 2026-04-29 20:18 | 53.61922 | -55.11607 | 36117 ft | 423 kts | 241° |
| 2026-04-29 20:18 | 53.59257 | -55.20441 | 36112 ft | 423 kts | 241° |
| 2026-04-29 20:19 | 53.56607 | -55.29230 | 36111 ft | 423 kts | 241° |
| 2026-04-29 20:19 | 53.53936 | -55.38043 | 36129 ft | 422 kts | 240° |
| 2026-04-29 20:20 | 53.51245 | -55.46846 | 36127 ft | 422 kts | 240° |
| 2026-04-29 20:20 | 53.48564 | -55.55604 | 36117 ft | 421 kts | 240° |
| 2026-04-29 20:21 | 53.45885 | -55.64352 | 36106 ft | 420 kts | 240° |
| 2026-04-29 20:21 | 53.43220 | -55.72997 | 36098 ft | 420 kts | 240° |
| 2026-04-29 20:22 | 53.40524 | -55.81712 | 36090 ft | 420 kts | 239° |
| 2026-04-29 20:22 | 53.37825 | -55.90425 | 36103 ft | 421 kts | 239° |
| 2026-04-29 20:23 | 53.35113 | -55.99130 | 36097 ft | 421 kts | 239° |
| 2026-04-29 20:23 | 53.32394 | -56.07809 | 36093 ft | 421 kts | 239° |
| 2026-04-29 20:24 | 53.29688 | -56.16438 | 36098 ft | 421 kts | 239° |
| 2026-04-29 20:24 | 53.26956 | -56.25114 | 36106 ft | 421 kts | 239° |
| 2026-04-29 20:25 | 53.24223 | -56.33796 | 36109 ft | 421 kts | 239° |
| 2026-04-29 20:25 | 53.21476 | -56.42448 | 36102 ft | 421 kts | 239° |
| 2026-04-29 20:26 | 53.18750 | -56.51027 | 36116 ft | 421 kts | 238° |
| 2026-04-29 20:26 | 53.15995 | -56.59636 | 36114 ft | 421 kts | 238° |
| 2026-04-29 20:27 | 53.13693 | -56.66804 | 36110 ft | 420 kts | 238° |
| 2026-04-29 20:27 | 53.10458 | -56.76845 | 36116 ft | 420 kts | 237° |
| 2026-04-29 20:28 | 53.07180 | -56.84734 | 36113 ft | 416 kts | 230° |
| 2026-04-29 20:28 | 53.03743 | -56.92486 | 36121 ft | 416 kts | 230° |
| 2026-04-29 20:29 | 53.00308 | -57.00231 | 36111 ft | 416 kts | 230° |
| 2026-04-29 20:29 | 52.96891 | -57.07918 | 36116 ft | 416 kts | 230° |
| 2026-04-29 20:30 | 52.93450 | -57.15640 | 36101 ft | 416 kts | 230° |
| 2026-04-29 20:30 | 52.89994 | -57.23364 | 36109 ft | 417 kts | 230° |
| 2026-04-29 20:31 | 52.86519 | -57.31105 | 36112 ft | 418 kts | 230° |
| 2026-04-29 20:31 | 52.83064 | -57.38788 | 36123 ft | 418 kts | 230° |
| 2026-04-29 20:32 | 52.79576 | -57.46507 | 36134 ft | 418 kts | 230° |
| 2026-04-29 20:32 | 52.76084 | -57.54198 | 36122 ft | 418 kts | 229° |
| 2026-04-29 20:33 | 52.72597 | -57.61884 | 36125 ft | 418 kts | 229° |
| 2026-04-29 20:33 | 52.69125 | -57.69512 | 36124 ft | 418 kts | 229° |
| 2026-04-29 20:34 | 52.65617 | -57.77176 | 36135 ft | 418 kts | 229° |
| 2026-04-29 20:34 | 52.62110 | -57.84831 | 36137 ft | 418 kts | 229° |
| 2026-04-29 20:35 | 52.58600 | -57.92459 | 36143 ft | 418 kts | 229° |
| 2026-04-29 20:35 | 52.55077 | -58.00093 | 36144 ft | 419 kts | 229° |
| 2026-04-29 20:36 | 52.51562 | -58.07673 | 36147 ft | 418 kts | 229° |
| 2026-04-29 20:36 | 52.48034 | -58.15275 | 36139 ft | 418 kts | 229° |
| 2026-04-29 20:37 | 52.44506 | -58.22879 | 36154 ft | 418 kts | 229° |
| 2026-04-29 20:37 | 52.40981 | -58.30426 | 36148 ft | 418 kts | 229° |
| 2026-04-29 20:38 | 52.37429 | -58.38009 | 36150 ft | 419 kts | 229° |
| 2026-04-29 20:38 | 52.33872 | -58.45578 | 36150 ft | 419 kts | 228° |
| 2026-04-29 20:39 | 52.30309 | -58.53132 | 36156 ft | 419 kts | 228° |
| 2026-04-29 20:39 | 52.26763 | -58.60648 | 36164 ft | 420 kts | 228° |
| 2026-04-29 20:40 | 52.23195 | -58.68201 | 36169 ft | 420 kts | 228° |
| 2026-04-29 20:40 | 52.19614 | -58.75739 | 36168 ft | 420 kts | 228° |
| 2026-04-29 20:41 | 52.16036 | -58.83234 | 36171 ft | 420 kts | 228° |
| 2026-04-29 20:41 | 52.12446 | -58.90738 | 36171 ft | 420 kts | 228° |
| 2026-04-29 20:42 | 52.08868 | -58.98209 | 36174 ft | 420 kts | 228° |
| 2026-04-29 20:42 | 52.05257 | -59.05715 | 36172 ft | 420 kts | 228° |
| 2026-04-29 20:43 | 52.01665 | -59.13163 | 36177 ft | 420 kts | 228° |
| 2026-04-29 20:43 | 51.98047 | -59.20648 | 36174 ft | 420 kts | 228° |
| 2026-04-29 20:44 | 51.94451 | -59.28070 | 36180 ft | 420 kts | 228° |
| 2026-04-29 20:44 | 51.90825 | -59.35524 | 36175 ft | 420 kts | 228° |
| 2026-04-29 20:45 | 51.87196 | -59.42966 | 36176 ft | 420 kts | 227° |
| 2026-04-29 20:45 | 51.83585 | -59.50338 | 36175 ft | 420 kts | 227° |
| 2026-04-29 20:46 | 51.79951 | -59.57743 | 36175 ft | 420 kts | 227° |
| 2026-04-29 20:46 | 51.76309 | -59.65157 | 36179 ft | 420 kts | 227° |
| 2026-04-29 20:47 | 51.72658 | -59.72543 | 36185 ft | 420 kts | 227° |
| 2026-04-29 20:47 | 51.69624 | -59.78677 | 36180 ft | 420 kts | 227° |
| 2026-04-29 20:48 | 51.65377 | -59.87226 | 36173 ft | 420 kts | 227° |
| 2026-04-29 20:48 | 51.61723 | -59.94579 | 36175 ft | 420 kts | 227° |
| 2026-04-29 20:49 | 51.58068 | -60.01900 | 36183 ft | 420 kts | 227° |
| 2026-04-29 20:49 | 51.54400 | -60.09214 | 36184 ft | 420 kts | 227° |
| 2026-04-29 20:50 | 51.50732 | -60.16505 | 36183 ft | 420 kts | 228° |
| 2026-04-29 20:50 | 51.47084 | -60.23769 | 36185 ft | 420 kts | 228° |
| 2026-04-29 20:51 | 51.43413 | -60.31060 | 36186 ft | 420 kts | 228° |
| 2026-04-29 20:51 | 51.39729 | -60.38326 | 36182 ft | 420 kts | 229° |
| 2026-04-29 20:52 | 51.36028 | -60.45596 | 36181 ft | 421 kts | 229° |
| 2026-04-29 20:52 | 51.32348 | -60.52826 | 36193 ft | 421 kts | 229° |
| 2026-04-29 20:53 | 51.28646 | -60.60085 | 36193 ft | 421 kts | 229° |
| 2026-04-29 20:53 | 51.24937 | -60.67332 | 36211 ft | 422 kts | 230° |
| 2026-04-29 20:54 | 51.19974 | -60.76984 | 36200 ft | 423 kts | 230° |
| 2026-04-29 20:55 | 51.16235 | -60.84244 | 36199 ft | 424 kts | 230° |
| 2026-04-29 20:55 | 51.12488 | -60.91517 | 36199 ft | 424 kts | 230° |
| 2026-04-29 20:56 | 51.08742 | -60.98730 | 36200 ft | 424 kts | 230° |
| 2026-04-29 20:56 | 51.04965 | -61.05981 | 36200 ft | 425 kts | 230° |
| 2026-04-29 20:57 | 51.01193 | -61.13213 | 36201 ft | 425 kts | 230° |
| 2026-04-29 20:57 | 50.97414 | -61.20449 | 36206 ft | 425 kts | 230° |
| 2026-04-29 20:58 | 50.93630 | -61.27679 | 36207 ft | 426 kts | 230° |
| 2026-04-29 20:58 | 50.89855 | -61.34852 | 36214 ft | 426 kts | 230° |
| 2026-04-29 20:59 | 50.86059 | -61.42053 | 36202 ft | 426 kts | 230° |
| 2026-04-29 20:59 | 50.82251 | -61.49262 | 36209 ft | 426 kts | 230° |
| 2026-04-29 21:00 | 50.78442 | -61.56456 | 36212 ft | 426 kts | 230° |
| 2026-04-29 21:00 | 50.74652 | -61.63588 | 36216 ft | 426 kts | 230° |
| 2026-04-29 21:01 | 50.70831 | -61.70747 | 36222 ft | 426 kts | 230° |
| 2026-04-29 21:01 | 50.67004 | -61.77903 | 36219 ft | 426 kts | 230° |
| 2026-04-29 21:02 | 50.63173 | -61.85039 | 36220 ft | 425 kts | 230° |
| 2026-04-29 21:02 | 50.59378 | -61.92106 | 36219 ft | 425 kts | 230° |
| 2026-04-29 21:03 | 50.55553 | -61.99222 | 36224 ft | 425 kts | 229° |
| 2026-04-29 21:03 | 50.51725 | -62.06308 | 36225 ft | 424 kts | 229° |
| 2026-04-29 21:04 | 50.47901 | -62.13360 | 36220 ft | 423 kts | 229° |
| 2026-04-29 21:04 | 50.44083 | -62.20386 | 36217 ft | 423 kts | 229° |
| 2026-04-29 21:05 | 50.40267 | -62.27396 | 36217 ft | 422 kts | 229° |
| 2026-04-29 21:05 | 50.36471 | -62.34343 | 36209 ft | 422 kts | 229° |
| 2026-04-29 21:06 | 50.32644 | -62.41317 | 36210 ft | 422 kts | 228° |
| 2026-04-29 21:06 | 50.28819 | -62.48278 | 36203 ft | 421 kts | 228° |
| 2026-04-29 21:07 | 50.24989 | -62.55226 | 36201 ft | 421 kts | 228° |
| 2026-04-29 21:07 | 50.21178 | -62.62114 | 36196 ft | 422 kts | 228° |
| 2026-04-29 21:08 | 50.17344 | -62.69041 | 36194 ft | 422 kts | 228° |
| 2026-04-29 21:08 | 50.13500 | -62.75959 | 36183 ft | 422 kts | 228° |
| 2026-04-29 21:09 | 50.09650 | -62.82876 | 36184 ft | 422 kts | 228° |
| 2026-04-29 21:09 | 50.05788 | -62.89776 | 36172 ft | 422 kts | 228° |
| 2026-04-29 21:10 | 50.01956 | -62.96610 | 36151 ft | 421 kts | 228° |
| 2026-04-29 21:10 | 49.98099 | -63.03489 | 36151 ft | 421 kts | 228° |
| 2026-04-29 21:11 | 49.94236 | -63.10361 | 36151 ft | 421 kts | 227° |
| 2026-04-29 21:11 | 49.90397 | -63.17160 | 36175 ft | 421 kts | 227° |
| 2026-04-29 21:12 | 49.86528 | -63.24012 | 36164 ft | 421 kts | 227° |
| 2026-04-29 21:12 | 49.82665 | -63.30833 | 36152 ft | 420 kts | 227° |
| 2026-04-29 21:13 | 49.78794 | -63.37639 | 36150 ft | 420 kts | 227° |
| 2026-04-29 21:13 | 49.74946 | -63.44376 | 36147 ft | 420 kts | 227° |
| 2026-04-29 21:14 | 49.71064 | -63.51162 | 36142 ft | 420 kts | 227° |
| 2026-04-29 21:14 | 49.67219 | -63.57865 | 36165 ft | 419 kts | 227° |
| 2026-04-29 21:15 | 49.63342 | -63.64609 | 36165 ft | 418 kts | 227° |
| 2026-04-29 21:15 | 49.59467 | -63.71328 | 36156 ft | 417 kts | 227° |
| 2026-04-29 21:16 | 49.55634 | -63.77975 | 36144 ft | 417 kts | 226° |
| 2026-04-29 21:16 | 49.51773 | -63.84636 | 36157 ft | 417 kts | 226° |
| 2026-04-29 21:17 | 49.47914 | -63.91287 | 36161 ft | 416 kts | 226° |
| 2026-04-29 21:17 | 49.44050 | -63.97923 | 36145 ft | 416 kts | 226° |
| 2026-04-29 21:18 | 49.40191 | -64.04531 | 36136 ft | 415 kts | 226° |
| 2026-04-29 21:18 | 49.36327 | -64.11132 | 36138 ft | 415 kts | 226° |
| 2026-04-29 21:19 | 49.32470 | -64.17722 | 36131 ft | 415 kts | 226° |
| 2026-04-29 21:19 | 49.28630 | -64.24263 | 36126 ft | 415 kts | 226° |
| 2026-04-29 21:20 | 49.24774 | -64.30805 | 36118 ft | 415 kts | 226° |
| 2026-04-29 21:20 | 49.20903 | -64.37359 | 36128 ft | 415 kts | 226° |
| 2026-04-29 21:21 | 49.17024 | -64.43904 | 36117 ft | 414 kts | 226° |
| 2026-04-29 21:21 | 49.13139 | -64.50449 | 36105 ft | 415 kts | 226° |
| 2026-04-29 21:22 | 49.09255 | -64.56959 | 36102 ft | 415 kts | 226° |
| 2026-04-29 21:22 | 49.05383 | -64.63441 | 36103 ft | 415 kts | 226° |
| 2026-04-29 21:23 | 49.01497 | -64.69941 | 36098 ft | 415 kts | 226° |
| 2026-04-29 21:23 | 48.97617 | -64.76411 | 36103 ft | 415 kts | 226° |
| 2026-04-29 21:24 | 48.93710 | -64.82898 | 36097 ft | 415 kts | 225° |
| 2026-04-29 21:24 | 48.89794 | -64.89383 | 36108 ft | 416 kts | 225° |
| 2026-04-29 21:25 | 48.85878 | -64.95875 | 36109 ft | 416 kts | 226° |
| 2026-04-29 21:25 | 48.81985 | -65.02310 | 36118 ft | 416 kts | 225° |
| 2026-04-29 21:26 | 48.78051 | -65.08779 | 36118 ft | 416 kts | 225° |
| 2026-04-29 21:26 | 48.74116 | -65.15230 | 36127 ft | 416 kts | 225° |
| 2026-04-29 21:27 | 48.70848 | -65.20576 | 36123 ft | 416 kts | 225° |
| 2026-04-29 21:27 | 48.66253 | -65.28084 | 36118 ft | 415 kts | 225° |
| 2026-04-29 21:28 | 48.62336 | -65.34472 | 36113 ft | 415 kts | 225° |
| 2026-04-29 21:28 | 48.58397 | -65.40876 | 36111 ft | 415 kts | 225° |
| 2026-04-29 21:29 | 48.54452 | -65.47268 | 36114 ft | 415 kts | 225° |
| 2026-04-29 21:29 | 48.50530 | -65.53612 | 36130 ft | 415 kts | 225° |
| 2026-04-29 21:30 | 48.46585 | -65.59983 | 36121 ft | 415 kts | 225° |
| 2026-04-29 21:30 | 48.42625 | -65.66357 | 36120 ft | 416 kts | 225° |
| 2026-04-29 21:31 | 48.38688 | -65.72682 | 36104 ft | 416 kts | 225° |
| 2026-04-29 21:31 | 48.34722 | -65.79044 | 36101 ft | 417 kts | 225° |
| 2026-04-29 21:32 | 48.30747 | -65.85390 | 36099 ft | 417 kts | 225° |
| 2026-04-29 21:32 | 48.26787 | -65.91694 | 36093 ft | 417 kts | 225° |
| 2026-04-29 21:33 | 48.22800 | -65.98048 | 36096 ft | 418 kts | 225° |
| 2026-04-29 21:33 | 48.18801 | -66.04401 | 36086 ft | 418 kts | 225° |
| 2026-04-29 21:34 | 48.14791 | -66.10730 | 36084 ft | 418 kts | 225° |
| 2026-04-29 21:34 | 48.10812 | -66.17008 | 36076 ft | 419 kts | 225° |
| 2026-04-29 21:35 | 48.06793 | -66.23336 | 36077 ft | 419 kts | 225° |
| 2026-04-29 21:35 | 48.02766 | -66.29662 | 36079 ft | 419 kts | 225° |
| 2026-04-29 21:36 | 47.98760 | -66.35944 | 36073 ft | 419 kts | 225° |
| 2026-04-29 21:36 | 47.94722 | -66.42265 | 36072 ft | 419 kts | 225° |
| 2026-04-29 21:37 | 47.91356 | -66.47498 | 36071 ft | 420 kts | 225° |
| 2026-04-29 21:37 | 47.86650 | -66.54819 | 36066 ft | 421 kts | 225° |
| 2026-04-29 21:38 | 47.82603 | -66.61125 | 36067 ft | 421 kts | 226° |
| 2026-04-29 21:38 | 47.78572 | -66.67374 | 36054 ft | 421 kts | 225° |
| 2026-04-29 21:39 | 47.74510 | -66.73652 | 36053 ft | 421 kts | 226° |
| 2026-04-29 21:39 | 47.71123 | -66.78876 | 36052 ft | 421 kts | 226° |
| 2026-04-29 21:40 | 47.66379 | -66.86168 | 36051 ft | 422 kts | 225° |
| 2026-04-29 21:40 | 47.62305 | -66.92421 | 36051 ft | 422 kts | 225° |
| 2026-04-29 21:41 | 47.58881 | -66.97655 | 36043 ft | 422 kts | 226° |
| 2026-04-29 21:41 | 47.54789 | -67.03903 | 36046 ft | 422 kts | 225° |
| 2026-04-29 21:42 | 47.50717 | -67.10109 | 36045 ft | 422 kts | 225° |
| 2026-04-29 21:42 | 47.46618 | -67.16350 | 36050 ft | 422 kts | 225° |
| 2026-04-29 21:43 | 47.42507 | -67.22584 | 36046 ft | 423 kts | 225° |
| 2026-04-29 21:43 | 47.38356 | -67.28669 | 36050 ft | 423 kts | 220° |
| 2026-04-29 21:44 | 47.33311 | -67.33125 | 36052 ft | 424 kts | 206° |
| 2026-04-29 21:44 | 47.27955 | -67.36734 | 36052 ft | 425 kts | 206° |
| 2026-04-29 21:45 | 47.22574 | -67.40355 | 36056 ft | 425 kts | 206° |
| 2026-04-29 21:45 | 47.17188 | -67.43987 | 36055 ft | 426 kts | 206° |
| 2026-04-29 21:46 | 47.11799 | -67.47606 | 36059 ft | 426 kts | 206° |
| 2026-04-29 21:46 | 47.06399 | -67.51216 | 36064 ft | 426 kts | 206° |
| 2026-04-29 21:47 | 47.01024 | -67.54806 | 36060 ft | 427 kts | 206° |
| 2026-04-29 21:47 | 46.95608 | -67.58420 | 36059 ft | 427 kts | 206° |
| 2026-04-29 21:48 | 46.90189 | -67.62022 | 36061 ft | 428 kts | 206° |
| 2026-04-29 21:48 | 46.84792 | -67.65595 | 36050 ft | 428 kts | 206° |
| 2026-04-29 21:49 | 46.79349 | -67.69197 | 36049 ft | 429 kts | 206° |
| 2026-04-29 21:49 | 46.73909 | -67.72805 | 36054 ft | 429 kts | 206° |
| 2026-04-29 21:50 | 46.68493 | -67.76379 | 36061 ft | 430 kts | 206° |
| 2026-04-29 21:50 | 46.63029 | -67.79976 | 36061 ft | 430 kts | 206° |
| 2026-04-29 21:51 | 46.57597 | -67.83542 | 36061 ft | 430 kts | 206° |
| 2026-04-29 21:51 | 46.49395 | -67.88906 | 36083 ft | 430 kts | 206° |
| 2026-04-29 21:52 | 46.43962 | -67.92453 | 36074 ft | 431 kts | 206° |